Time;durP1;ratioP1;P1;durP2;ratioP2;P2;SDS_P1;SDS_P2;PMS_P1;PMS_P2;Temp;Humidity;BMP_temperature;BMP_pressure;BME280_temperature;BME280_humidity;BME280_pressure;Samples;Min_cycle;Max_cycle;Signal;HPM_P1;HPM_P2
2024/01/28 00:02:02;;;;;;;0.70;0.38;;;22.90;57.10;;;;;;5130216;27;20075;-36
2024/01/28 00:04:28;;;;;;;0.45;0.40;;;23.00;56.70;;;;;;5129771;27;20525;-36
2024/01/28 00:06:54;;;;;;;0.75;0.40;;;22.90;56.40;;;;;;5128563;27;20039;-38
2024/01/28 00:09:20;;;;;;;0.90;0.30;;;23.00;56.00;;;;;;5114398;27;20034;-33
2024/01/28 00:11:47;;;;;;;0.40;0.30;;;22.90;55.80;;;;;;5131694;27;20030;-33
2024/01/28 00:14:13;;;;;;;0.63;0.40;;;23.00;56.50;;;;;;5117274;27;20035;-36
2024/01/28 00:16:39;;;;;;;0.30;0.30;;;22.90;56.30;;;;;;5134883;27;20027;-32
2024/01/28 00:19:05;;;;;;;2.08;0.30;;;22.90;56.50;;;;;;5137608;27;20066;-35
2024/01/28 00:21:32;;;;;;;1.02;0.40;;;22.90;56.20;;;;;;5139379;27;20019;-32
2024/01/28 00:23:59;;;;;;;0.75;0.30;;;22.90;56.40;;;;;;5142608;27;20063;-33
2024/01/28 00:26:26;;;;;;;0.60;0.40;;;22.90;56.30;;;;;;5141369;27;20023;-32
2024/01/28 00:28:52;;;;;;;0.88;0.45;;;22.90;56.30;;;;;;5139571;27;20032;-37
2024/01/28 00:31:18;;;;;;;0.60;0.30;;;22.90;56.40;;;;;;5129550;27;20644;-32
2024/01/28 00:33:44;;;;;;;0.85;0.43;;;22.90;56.30;;;;;;5131679;27;20036;-35
2024/01/28 00:36:15;;;;;;;0.85;0.28;;;22.90;56.30;;;;;;5129562;27;20753;-34
2024/01/28 00:38:41;;;;;;;0.98;0.30;;;22.90;56.60;;;;;;5130270;27;20039;-35
2024/01/28 00:41:07;;;;;;;0.50;0.30;;;22.90;56.50;;;;;;5129646;27;20019;-36
2024/01/28 00:43:34;;;;;;;0.65;0.40;;;22.90;56.90;;;;;;5132247;27;20042;-35
2024/01/28 00:46:20;;;;;;;0.47;0.30;;;22.90;57.00;;;;;;5134699;27;20525;-38
2024/01/28 00:48:49;;;;;;;0.50;0.47;;;23.00;56.70;;;;;;5016249;28;20038;-39
2024/01/28 00:51:15;;;;;;;1.05;0.50;;;23.00;56.20;;;;;;5010498;28;20038;-37
2024/01/28 00:53:41;;;;;;;1.30;0.40;;;22.90;56.00;;;;;;5006995;28;20112;-35
2024/01/28 00:56:08;;;;;;;0.77;0.20;;;22.90;56.30;;;;;;5013744;28;20032;-39
2024/01/28 00:58:34;;;;;;;1.95;0.30;;;22.90;56.60;;;;;;5015366;28;20030;-37
2024/01/28 01:01:00;;;;;;;0.88;0.40;;;22.90;56.50;;;;;;5018890;28;20442;-37
2024/01/28 01:03:26;;;;;;;1.75;0.40;;;22.90;56.40;;;;;;5016262;28;20068;-38
2024/01/28 01:05:52;;;;;;;2.55;0.40;;;22.90;56.40;;;;;;5009490;28;20039;-38
2024/01/28 01:08:18;;;;;;;2.38;0.43;;;22.90;56.50;;;;;;5016831;28;20080;-34
2024/01/28 01:10:45;;;;;;;0.30;0.30;;;22.90;56.50;;;;;;5014459;28;20101;-38
2024/01/28 01:13:11;;;;;;;0.80;0.40;;;22.90;56.50;;;;;;5011261;28;20107;-36
2024/01/28 01:15:37;;;;;;;0.60;0.25;;;22.90;56.30;;;;;;5013854;28;20037;-38
2024/01/28 01:18:03;;;;;;;0.65;0.20;;;22.90;56.50;;;;;;5016500;28;20052;-37
2024/01/28 01:20:29;;;;;;;1.38;0.30;;;22.90;56.90;;;;;;5013621;28;20030;-36
2024/01/28 01:22:56;;;;;;;0.63;0.30;;;22.90;57.10;;;;;;5014869;28;20038;-37
2024/01/28 01:25:22;;;;;;;0.50;0.20;;;23.00;56.80;;;;;;5048969;27;20092;-37
2024/01/28 01:27:48;;;;;;;1.63;0.32;;;23.00;56.70;;;;;;5135975;28;20077;-36
2024/01/28 01:30:15;;;;;;;1.02;0.40;;;23.00;56.10;;;;;;5141233;28;20027;-38
2024/01/28 01:32:41;;;;;;;0.98;0.38;;;22.90;56.00;;;;;;5135088;28;20064;-37
2024/01/28 01:35:08;;;;;;;0.52;0.30;;;22.90;56.40;;;;;;5129981;28;20020;-37
2024/01/28 01:37:34;;;;;;;1.42;0.40;;;22.90;56.60;;;;;;5134566;27;20031;-38
2024/01/28 01:40:00;;;;;;;1.05;0.30;;;22.90;56.60;;;;;;5133014;28;20028;-38
2024/01/28 01:42:27;;;;;;;0.93;0.40;;;22.90;56.50;;;;;;5141033;28;20027;-34
2024/01/28 01:44:53;;;;;;;1.67;0.50;;;22.90;56.70;;;;;;5115360;28;20120;-37
2024/01/28 01:47:19;;;;;;;1.65;0.30;;;22.90;56.30;;;;;;5127066;28;20641;-35
2024/01/28 01:49:46;;;;;;;1.55;0.35;;;22.90;56.50;;;;;;5120212;28;20038;-35
2024/01/28 01:52:13;;;;;;;0.65;0.30;;;22.90;56.40;;;;;;5133052;28;20042;-37
2024/01/28 01:54:39;;;;;;;0.90;0.35;;;22.90;56.40;;;;;;5137319;28;20052;-38
2024/01/28 01:57:06;;;;;;;0.50;0.30;;;22.90;56.50;;;;;;5138482;27;20043;-35
2024/01/28 01:59:32;;;;;;;0.50;0.30;;;22.90;57.00;;;;;;5134089;27;20023;-35
2024/01/28 02:01:59;;;;;;;1.10;0.40;;;22.90;57.00;;;;;;5136313;27;20039;-37
2024/01/28 02:04:25;;;;;;;1.30;0.50;;;23.00;56.70;;;;;;5103723;27;20040;-35
2024/01/28 02:06:51;;;;;;;0.50;0.30;;;23.00;56.30;;;;;;5134437;27;20027;-41
2024/01/28 02:09:18;;;;;;;0.55;0.30;;;22.90;56.10;;;;;;5117791;27;20023;-39
2024/01/28 02:11:44;;;;;;;0.30;0.20;;;22.90;56.30;;;;;;5133669;27;20091;-38
2024/01/28 02:14:10;;;;;;;1.17;0.30;;;22.90;56.50;;;;;;5133457;27;20024;-40
2024/01/28 02:16:36;;;;;;;0.98;0.30;;;22.90;56.30;;;;;;5110650;27;20305;-44
2024/01/28 02:19:02;;;;;;;1.85;0.40;;;22.90;56.40;;;;;;5144757;27;20023;-36
2024/01/28 02:21:29;;;;;;;0.68;0.40;;;22.90;56.30;;;;;;5142138;27;20023;-35
2024/01/28 02:23:55;;;;;;;0.55;0.30;;;22.90;56.40;;;;;;5136393;27;20035;-39
2024/01/28 02:26:21;;;;;;;0.60;0.30;;;22.90;56.50;;;;;;5141089;27;20019;-34
2024/01/28 02:28:47;;;;;;;0.40;0.22;;;22.90;56.50;;;;;;5139054;27;20035;-34
2024/01/28 02:31:13;;;;;;;0.70;0.20;;;22.90;56.60;;;;;;5134023;27;20043;-35
2024/01/28 02:33:39;;;;;;;0.73;0.38;;;22.90;57.30;;;;;;5143139;27;20030;-38
2024/01/28 02:36:06;;;;;;;0.95;0.30;;;22.90;57.10;;;;;;5132442;27;20087;-37
2024/01/28 02:38:32;;;;;;;0.87;0.40;;;23.00;56.90;;;;;;5140106;27;20703;-38
2024/01/28 02:40:59;;;;;;;1.42;0.32;;;23.00;56.80;;;;;;5137343;27;20271;-35
2024/01/28 02:43:25;;;;;;;4.20;0.38;;;23.00;56.20;;;;;;5143483;27;20095;-31
2024/01/28 02:45:51;;;;;;;1.70;0.38;;;23.00;56.60;;;;;;5140176;27;20464;-36
2024/01/28 02:48:17;;;;;;;0.55;0.32;;;23.00;56.60;;;;;;5134721;27;20038;-35
2024/01/28 02:50:43;;;;;;;2.67;0.45;;;22.90;56.40;;;;;;5134965;27;20051;-35
2024/01/28 02:53:10;;;;;;;2.22;0.40;;;22.90;56.40;;;;;;5138835;27;20044;-37
2024/01/28 02:55:36;;;;;;;3.60;0.35;;;22.90;56.30;;;;;;5134139;27;20036;-35
2024/01/28 02:58:03;;;;;;;1.55;0.30;;;22.90;56.50;;;;;;5135922;27;20031;-36
2024/01/28 03:00:29;;;;;;;0.57;0.30;;;22.90;56.50;;;;;;5131429;27;20035;-34
2024/01/28 03:02:55;;;;;;;0.70;0.40;;;22.90;56.70;;;;;;5131232;27;20040;-34
2024/01/28 03:05:22;;;;;;;0.47;0.20;;;22.90;56.70;;;;;;5146526;27;20053;-38
2024/01/28 03:07:48;;;;;;;2.70;0.40;;;22.90;56.70;;;;;;5139407;27;20027;-36
2024/01/28 03:10:14;;;;;;;1.13;0.30;;;22.90;56.80;;;;;;5133110;27;20505;-35
2024/01/28 03:12:40;;;;;;;0.25;0.20;;;22.90;57.00;;;;;;5137497;27;20028;-36
2024/01/28 03:15:07;;;;;;;0.55;0.20;;;22.90;57.10;;;;;;5140985;27;20033;-38
2024/01/28 03:17:33;;;;;;;0.33;0.20;;;22.90;56.80;;;;;;5141082;27;20071;-37
2024/01/28 03:19:59;;;;;;;0.50;0.20;;;22.90;56.90;;;;;;5155461;27;20027;-35
2024/01/28 03:22:25;;;;;;;0.20;0.20;;;22.90;56.50;;;;;;5136382;27;20054;-35
2024/01/28 03:24:52;;;;;;;0.40;0.30;;;22.90;56.50;;;;;;5135967;27;20030;-37
2024/01/28 03:27:18;;;;;;;0.20;0.20;;;22.90;56.60;;;;;;5139706;27;20083;-36
2024/01/28 03:29:44;;;;;;;0.52;0.25;;;22.90;56.50;;;;;;5134304;27;20042;-34
2024/01/28 03:32:10;;;;;;;0.17;0.17;;;22.90;56.70;;;;;;5142658;27;20027;-36
2024/01/28 03:34:36;;;;;;;0.90;0.30;;;22.90;56.60;;;;;;5140835;27;20027;-37
2024/01/28 03:37:23;;;;;;;0.63;0.30;;;22.90;56.70;;;;;;5054122;28;20085;-35
2024/01/28 03:39:49;;;;;;;0.50;0.30;;;22.90;56.70;;;;;;5062523;28;20041;-39
2024/01/28 03:42:15;;;;;;;0.60;0.30;;;22.90;56.60;;;;;;5059815;28;20029;-36
2024/01/28 03:44:42;;;;;;;0.32;0.30;;;22.90;56.90;;;;;;5060280;28;20071;-35
2024/01/28 03:47:08;;;;;;;0.45;0.28;;;22.90;56.90;;;;;;5060722;28;20025;-34
2024/01/28 03:49:34;;;;;;;0.55;0.20;;;22.90;57.00;;;;;;5055270;28;20060;-36
2024/01/28 03:52:00;;;;;;;0.93;0.10;;;22.90;57.10;;;;;;5060281;28;20064;-37
2024/01/28 03:54:27;;;;;;;1.30;0.30;;;22.90;56.90;;;;;;5057429;28;20037;-36
2024/01/28 03:56:53;;;;;;;2.15;0.30;;;22.90;56.90;;;;;;5065004;28;20084;-37
2024/01/28 03:59:19;;;;;;;0.50;0.20;;;22.90;56.60;;;;;;5046019;28;20099;-34
2024/01/28 04:01:46;;;;;;;0.52;0.30;;;22.90;56.50;;;;;;5060127;28;20044;-41
2024/01/28 04:04:12;;;;;;;0.60;0.25;;;22.90;56.60;;;;;;5060361;28;20033;-35
2024/01/28 04:06:43;;;;;;;2.70;0.30;;;22.90;56.70;;;;;;5059319;28;20037;-37
2024/01/28 04:09:10;;;;;;;2.78;0.20;;;22.90;56.80;;;;;;5054055;28;20037;-34
2024/01/28 04:11:36;;;;;;;2.47;0.30;;;22.90;56.80;;;;;;5058086;28;20136;-34
2024/01/28 04:14:02;;;;;;;0.88;0.40;;;22.90;57.00;;;;;;5084288;27;20745;-36
2024/01/28 04:16:48;;;;;;;0.38;0.30;;;22.90;56.70;;;;;;5091518;28;20059;-39
2024/01/28 04:19:14;;;;;;;1.60;0.30;;;22.90;56.70;;;;;;5092242;28;20052;-34
2024/01/28 04:21:41;;;;;;;5.13;0.50;;;22.90;56.50;;;;;;5088639;28;20608;-37
2024/01/28 04:24:07;;;;;;;1.48;0.20;;;22.90;56.70;;;;;;5094648;28;20508;-38
2024/01/28 04:26:33;;;;;;;0.63;0.40;;;22.90;57.60;;;;;;5083709;28;20151;-37
2024/01/28 04:29:00;;;;;;;0.75;0.50;;;23.00;56.90;;;;;;5091008;28;20040;-35
2024/01/28 04:31:26;;;;;;;1.17;0.30;;;23.00;57.00;;;;;;5097332;28;20020;-34
2024/01/28 04:33:54;;;;;;;0.20;0.20;;;23.00;56.50;;;;;;5095422;28;20147;-36
2024/01/28 04:36:21;;;;;;;0.75;0.28;;;23.00;56.40;;;;;;5087897;28;20020;-37
2024/01/28 04:38:47;;;;;;;0.77;0.28;;;22.90;56.50;;;;;;5084791;28;20105;-37
2024/01/28 04:41:14;;;;;;;1.87;0.30;;;22.90;56.60;;;;;;5093174;28;20039;-36
2024/01/28 04:43:41;;;;;;;1.15;0.30;;;22.90;56.50;;;;;;5089102;28;20590;-37
2024/01/28 04:46:07;;;;;;;0.57;0.20;;;22.90;56.50;;;;;;5090224;28;20036;-35
2024/01/28 04:48:33;;;;;;;0.40;0.20;;;22.90;56.50;;;;;;5096804;28;20051;-37
2024/01/28 04:50:59;;;;;;;0.32;0.20;;;22.90;56.80;;;;;;5081077;28;20063;-33
2024/01/28 04:53:25;;;;;;;0.22;0.22;;;23.00;56.50;;;;;;5100458;28;20039;-34
2024/01/28 04:55:51;;;;;;;0.40;0.20;;;23.00;56.60;;;;;;5134082;27;20062;-38
2024/01/28 04:58:18;;;;;;;0.30;0.20;;;22.90;56.60;;;;;;5136997;27;20023;-42
2024/01/28 05:00:44;;;;;;;1.13;0.30;;;22.90;56.50;;;;;;5133886;27;20162;-36
2024/01/28 05:03:10;;;;;;;0.55;0.20;;;22.90;56.50;;;;;;5139163;27;20039;-36
2024/01/28 05:05:36;;;;;;;1.40;0.30;;;22.90;56.50;;;;;;5132731;27;20055;-33
2024/01/28 05:08:03;;;;;;;0.55;0.15;;;22.90;56.50;;;;;;5134454;28;20023;-37
2024/01/28 05:10:29;;;;;;;0.30;0.20;;;22.90;56.40;;;;;;5134454;28;20035;-34
2024/01/28 05:12:55;;;;;;;1.60;0.30;;;22.90;56.50;;;;;;5139073;28;20031;-32
2024/01/28 05:15:22;;;;;;;1.27;0.20;;;22.90;56.60;;;;;;5140221;28;20019;-33
2024/01/28 05:17:48;;;;;;;0.93;0.17;;;22.90;56.40;;;;;;5120013;27;20031;-38
2024/01/28 05:20:15;;;;;;;0.52;0.30;;;22.90;56.60;;;;;;5139394;28;20914;-34
2024/01/28 05:22:41;;;;;;;0.20;0.20;;;22.90;57.30;;;;;;5139129;28;20050;-34
2024/01/28 05:25:09;;;;;;;0.30;0.20;;;22.90;56.50;;;;;;5139376;28;20050;-38
2024/01/28 05:27:38;;;;;;;0.52;0.22;;;22.90;56.80;;;;;;5138395;28;20027;-35
2024/01/28 05:30:06;;;;;;;0.45;0.10;;;22.90;56.50;;;;;;5138111;28;20043;-38
2024/01/28 05:32:32;;;;;;;0.30;0.20;;;22.80;56.60;;;;;;5141280;27;20015;-37
2024/01/28 05:35:02;;;;;;;0.95;0.20;;;22.80;56.70;;;;;;5143478;27;20515;-34
2024/01/28 05:37:28;;;;;;;0.38;0.20;;;22.80;56.70;;;;;;5142845;27;20016;-32
2024/01/28 05:39:55;;;;;;;3.10;0.30;;;22.80;56.40;;;;;;5144017;27;20035;-34
2024/01/28 05:42:21;;;;;;;0.88;0.20;;;22.90;56.50;;;;;;5143945;27;20027;-35
2024/01/28 05:44:47;;;;;;;0.20;0.20;;;22.90;56.40;;;;;;5142192;27;20083;-36
2024/01/28 05:47:13;;;;;;;0.75;0.20;;;22.90;56.30;;;;;;5143582;27;20391;-33
2024/01/28 05:49:39;;;;;;;0.10;0.10;;;22.90;56.40;;;;;;5142932;27;20031;-33
2024/01/28 05:52:06;;;;;;;0.20;0.20;;;22.90;56.40;;;;;;5144374;27;20043;-31
2024/01/28 05:54:32;;;;;;;0.88;0.10;;;22.80;56.50;;;;;;5142100;27;20757;-34
2024/01/28 05:56:59;;;;;;;0.25;0.20;;;22.80;56.70;;;;;;5137793;27;20038;-37
2024/01/28 05:59:26;;;;;;;;;;;22.80;56.80;;;;;;5145825;27;20087;-37
2024/01/28 06:01:53;;;;;;;0.65;0.20;;;22.80;56.80;;;;;;5121290;27;19941;-34
2024/01/28 06:04:19;;;;;;;0.82;0.20;;;22.80;56.90;;;;;;5143549;27;20035;-35
2024/01/28 06:06:45;;;;;;;1.08;0.20;;;22.70;56.40;;;;;;5141938;27;20137;-34
2024/01/28 06:09:11;;;;;;;1.45;0.20;;;22.80;56.40;;;;;;5141468;27;20031;-36
2024/01/28 06:11:37;;;;;;;0.73;0.10;;;22.80;56.20;;;;;;5138746;27;20031;-36
2024/01/28 06:14:04;;;;;;;1.10;0.10;;;22.80;56.20;;;;;;5143906;27;20279;-40
2024/01/28 06:16:30;;;;;;;0.73;0.20;;;22.80;56.20;;;;;;5143037;27;20052;-37
2024/01/28 06:18:56;;;;;;;0.45;0.20;;;22.80;56.40;;;;;;5142400;27;20137;-31
2024/01/28 06:21:22;;;;;;;0.20;0.10;;;22.70;56.50;;;;;;5141013;27;20038;-38
2024/01/28 06:23:49;;;;;;;0.32;0.20;;;22.70;56.50;;;;;;5123069;27;20039;-37
2024/01/28 06:26:17;;;;;;;0.43;0.20;;;22.70;56.40;;;;;;5139664;27;20035;-38
2024/01/28 06:28:48;;;;;;;0.10;0.10;;;22.70;56.20;;;;;;5140939;27;20043;-34
2024/01/28 06:31:14;;;;;;;0.15;0.10;;;22.80;55.90;;;;;;5140337;27;20023;-35
2024/01/28 06:33:41;;;;;;;0.10;0.10;;;22.80;55.80;;;;;;5140754;27;20031;-33
2024/01/28 06:36:07;;;;;;;0.63;0.20;;;22.80;55.90;;;;;;5142799;27;20026;-37
2024/01/28 06:38:33;;;;;;;0.13;0.13;;;22.80;55.80;;;;;;5141418;27;20125;-38
2024/01/28 06:41:00;;;;;;;0.83;0.10;;;22.70;55.80;;;;;;5141610;27;20073;-36
2024/01/28 06:43:26;;;;;;;0.40;0.10;;;22.70;55.90;;;;;;5139668;27;20024;-36
2024/01/28 06:45:52;;;;;;;0.15;0.10;;;22.70;55.90;;;;;;5141541;27;20035;-33
2024/01/28 06:48:19;;;;;;;0.10;0.10;;;22.70;55.80;;;;;;5121411;27;20023;-34
2024/01/28 06:50:46;;;;;;;0.50;0.10;;;22.70;55.70;;;;;;5141808;27;21675;-35
2024/01/28 06:53:12;;;;;;;0.40;0.13;;;22.70;55.40;;;;;;5142438;27;20416;-33
2024/01/28 06:55:38;;;;;;;0.20;0.10;;;22.70;55.40;;;;;;5140985;27;20035;-38
2024/01/28 06:58:04;;;;;;;0.10;0.10;;;22.70;55.40;;;;;;5141605;27;20034;-36
2024/01/28 07:00:31;;;;;;;0.27;0.10;;;22.70;55.40;;;;;;5138674;27;20056;-31
2024/01/28 07:02:58;;;;;;;2.35;0.10;;;22.60;55.40;;;;;;5138908;27;20035;-32
2024/01/28 07:05:25;;;;;;;0.10;0.10;;;22.60;55.50;;;;;;5133642;27;20102;-36
2024/01/28 07:07:51;;;;;;;0.32;0.10;;;22.60;55.20;;;;;;5128835;27;20015;-35
2024/01/28 07:10:17;;;;;;;1.27;0.10;;;22.70;55.10;;;;;;5136354;27;20038;-35
2024/01/28 07:12:43;;;;;;;0.22;0.10;;;22.70;55.10;;;;;;5141180;27;20012;-36
2024/01/28 07:15:09;;;;;;;0.10;0.10;;;22.70;55.10;;;;;;5136155;27;20023;-37
2024/01/28 07:17:36;;;;;;;0.22;0.10;;;22.70;55.10;;;;;;5133399;27;20027;-36
2024/01/28 07:20:02;;;;;;;0.00;0.00;;;22.60;55.10;;;;;;5141675;27;20023;-38
2024/01/28 07:22:28;;;;;;;1.40;0.10;;;22.60;55.10;;;;;;5135064;27;20023;-36
2024/01/28 07:24:55;;;;;;;0.10;0.10;;;22.60;55.10;;;;;;5132907;27;20054;-33
2024/01/28 07:27:21;;;;;;;0.03;0.00;;;22.60;55.00;;;;;;5134140;27;20027;-37
2024/01/28 07:29:48;;;;;;;0.10;0.10;;;22.60;54.80;;;;;;5132589;27;20095;-34
2024/01/28 07:32:14;;;;;;;0.00;0.00;;;22.60;54.80;;;;;;5137062;27;20031;-33
2024/01/28 07:34:40;;;;;;;0.00;0.00;;;22.60;54.80;;;;;;5139774;27;20158;-34
2024/01/28 07:37:07;;;;;;;0.25;0.10;;;22.60;54.80;;;;;;5133515;27;20027;-35
2024/01/28 07:39:33;;;;;;;0.13;0.10;;;22.60;54.90;;;;;;5137572;27;20049;-35
2024/01/28 07:41:59;;;;;;;1.58;0.10;;;22.60;54.90;;;;;;5139506;27;20019;-37
2024/01/28 07:44:26;;;;;;;2.05;0.00;;;22.60;54.80;;;;;;5137166;27;20097;-34
2024/01/28 07:46:52;;;;;;;0.10;0.10;;;22.60;54.70;;;;;;5133386;27;20485;-35
2024/01/28 07:49:19;;;;;;;20.00;0.43;;;22.60;54.50;;;;;;5143049;27;20035;-39
2024/01/28 07:51:45;;;;;;;7.90;0.22;;;22.60;54.50;;;;;;5131106;27;20057;-36
2024/01/28 07:54:12;;;;;;;7.18;0.20;;;22.60;54.50;;;;;;5137179;27;20038;-36
2024/01/28 07:56:38;;;;;;;2.17;0.20;;;22.60;54.60;;;;;;5137414;27;20036;-37
2024/01/28 07:59:04;;;;;;;2.47;0.20;;;22.60;54.60;;;;;;5141019;27;20210;-34
2024/01/28 08:01:32;;;;;;;1.05;0.10;;;22.60;54.70;;;;;;5138192;27;20019;-34
2024/01/28 08:03:58;;;;;;;1.55;0.10;;;22.50;54.40;;;;;;5128656;27;20094;-33
2024/01/28 08:06:24;;;;;;;1.08;0.20;;;22.60;54.50;;;;;;5133822;27;20031;-34
2024/01/28 08:08:52;;;;;;;0.25;0.10;;;22.60;54.30;;;;;;5131381;27;20027;-34
2024/01/28 08:11:19;;;;;;;0.32;0.10;;;22.60;54.30;;;;;;5136771;27;20037;-37
2024/01/28 08:13:45;;;;;;;0.15;0.00;;;22.60;54.30;;;;;;5140539;27;20037;-35
2024/01/28 08:16:11;;;;;;;0.90;0.10;;;22.50;54.60;;;;;;5131247;27;20079;-34
2024/01/28 08:18:38;;;;;;;2.15;0.10;;;22.50;54.30;;;;;;5133618;27;20027;-35
2024/01/28 08:21:05;;;;;;;0.20;0.10;;;22.50;54.30;;;;;;5133338;27;20031;-36
2024/01/28 08:23:33;;;;;;;0.10;0.10;;;22.50;54.10;;;;;;5132242;27;20032;-34
2024/01/28 08:25:59;;;;;;;0.30;0.10;;;22.50;53.90;;;;;;5136908;27;20111;-34
2024/01/28 08:28:25;;;;;;;0.10;0.10;;;22.60;53.90;;;;;;5134959;27;20047;-33
2024/01/28 08:30:52;;;;;;;0.52;0.10;;;22.50;53.80;;;;;;5140519;27;20034;-35
2024/01/28 08:33:18;;;;;;;0.10;0.10;;;22.50;53.90;;;;;;5130746;27;20026;-38
2024/01/28 08:35:44;;;;;;;0.40;0.10;;;22.50;53.90;;;;;;5135790;27;20690;-35
2024/01/28 08:38:10;;;;;;;0.15;0.05;;;22.50;53.90;;;;;;5133990;27;20034;-36
2024/01/28 08:40:38;;;;;;;0.10;0.10;;;22.40;53.70;;;;;;5138956;27;20046;-35
2024/01/28 08:43:07;;;;;;;0.10;0.10;;;22.50;53.70;;;;;;5133667;27;20031;-35
2024/01/28 08:45:33;;;;;;;0.47;0.10;;;22.50;53.70;;;;;;5139927;27;20679;-36
2024/01/28 08:48:00;;;;;;;0.52;0.10;;;22.50;53.50;;;;;;5124413;27;20034;-34
2024/01/28 08:50:26;;;;;;;0.08;0.00;;;22.50;53.50;;;;;;5127579;27;20024;-32
2024/01/28 08:52:52;;;;;;;0.00;0.00;;;22.40;53.50;;;;;;5125271;27;20051;-35
2024/01/28 08:55:18;;;;;;;0.10;0.10;;;22.40;53.60;;;;;;5141331;27;20046;-34
2024/01/28 08:57:44;;;;;;;0.20;0.10;;;22.40;53.50;;;;;;5132432;27;20043;-36
2024/01/28 09:00:11;;;;;;;0.52;0.00;;;22.40;53.30;;;;;;5130173;27;20027;-33
2024/01/28 09:02:41;;;;;;;2.25;0.10;;;22.50;53.20;;;;;;5135404;27;20035;-36
2024/01/28 09:05:08;;;;;;;0.10;0.10;;;22.50;53.20;;;;;;5137045;27;20087;-37
2024/01/28 09:07:34;;;;;;;1.65;0.10;;;22.40;53.20;;;;;;5137494;27;20027;-37
2024/01/28 09:10:00;;;;;;;0.20;0.10;;;22.40;53.20;;;;;;5134223;27;20031;-37
2024/01/28 09:12:26;;;;;;;0.33;0.10;;;22.40;53.30;;;;;;5128173;28;20028;-32
2024/01/28 09:14:53;;;;;;;0.35;0.10;;;22.30;53.20;;;;;;5131641;27;20035;-35
2024/01/28 09:17:19;;;;;;;0.22;0.10;;;22.40;53.20;;;;;;5133684;27;20105;-37
2024/01/28 09:19:45;;;;;;;0.10;0.10;;;22.40;53.00;;;;;;5141290;27;20027;-35
2024/01/28 09:22:11;;;;;;;0.10;0.10;;;22.40;52.90;;;;;;5140409;28;20661;-34
2024/01/28 09:24:38;;;;;;;0.28;0.10;;;22.40;52.90;;;;;;5131496;27;20043;-36
2024/01/28 09:27:04;;;;;;;0.70;0.20;;;22.40;53.00;;;;;;5135315;28;20035;-39
2024/01/28 09:29:31;;;;;;;0.95;0.13;;;22.30;52.90;;;;;;5127359;28;20054;-37
2024/01/28 09:31:59;;;;;;;0.75;0.10;;;22.30;53.00;;;;;;5135050;27;20024;-41
2024/01/28 09:34:25;;;;;;;0.47;0.00;;;22.30;53.00;;;;;;5129301;27;20032;-34
2024/01/28 09:36:51;;;;;;;0.20;0.00;;;22.40;52.80;;;;;;5139479;27;20031;-31
2024/01/28 09:39:17;;;;;;;0.10;0.10;;;22.40;52.70;;;;;;5136007;27;20282;-35
2024/01/28 09:41:49;;;;;;;1.45;0.10;;;22.40;52.70;;;;;;5125719;27;20031;-31
2024/01/28 09:44:16;;;;;;;1.65;0.10;;;22.30;52.70;;;;;;5152291;27;20491;-34
2024/01/28 09:46:42;;;;;;;0.03;0.03;;;22.30;52.80;;;;;;5137089;28;20047;-33
2024/01/28 09:49:11;;;;;;;2.50;0.10;;;22.30;52.70;;;;;;5136741;27;20042;-34
2024/01/28 09:51:39;;;;;;;0.00;0.00;;;22.30;52.60;;;;;;5115764;28;20038;-37
2024/01/28 09:54:05;;;;;;;0.00;0.00;;;22.30;52.50;;;;;;5138705;27;20043;-35
2024/01/28 09:56:31;;;;;;;0.00;0.00;;;22.40;52.50;;;;;;5139510;27;20046;-36
2024/01/28 09:58:58;;;;;;;0.00;0.00;;;22.30;52.40;;;;;;5128356;27;20050;-35
2024/01/28 10:01:26;;;;;;;0.00;0.00;;;22.30;52.40;;;;;;5112032;27;20476;-36
2024/01/28 10:03:52;;;;;;;0.25;0.10;;;22.30;52.40;;;;;;5122885;28;20115;-33
2024/01/28 10:06:18;;;;;;;0.00;0.00;;;22.30;52.50;;;;;;5122033;28;20041;-32
2024/01/28 10:08:44;;;;;;;0.10;0.10;;;22.30;52.30;;;;;;5132584;27;20092;-31
2024/01/28 10:11:10;;;;;;;0.10;0.10;;;22.30;52.30;;;;;;5132961;28;20058;-35
2024/01/28 10:13:37;;;;;;;1.55;0.10;;;22.30;52.20;;;;;;5121827;28;20027;-32
2024/01/28 10:16:03;;;;;;;0.10;0.10;;;22.30;52.10;;;;;;5134421;27;20023;-31
2024/01/28 10:18:29;;;;;;;0.40;0.13;;;22.30;52.20;;;;;;5136109;27;20023;-35
2024/01/28 10:20:55;;;;;;;0.70;0.10;;;22.20;52.20;;;;;;5134792;27;20031;-39
2024/01/28 10:23:21;;;;;;;0.10;0.00;;;22.20;52.20;;;;;;5132066;27;20031;-35
2024/01/28 10:25:48;;;;;;;0.00;0.00;;;22.20;52.10;;;;;;5136851;27;20019;-34
2024/01/28 10:28:17;;;;;;;0.13;0.00;;;22.30;52.00;;;;;;5131404;27;20030;-36
2024/01/28 10:30:43;;;;;;;0.10;0.10;;;22.30;51.90;;;;;;5117914;27;20023;-35
2024/01/28 10:33:09;;;;;;;1.13;0.10;;;22.30;51.90;;;;;;5140172;27;20015;-33
2024/01/28 10:35:35;;;;;;;0.10;0.05;;;22.20;51.90;;;;;;5128994;27;20036;-33
2024/01/28 10:38:01;;;;;;;0.47;0.13;;;22.20;52.00;;;;;;5129872;27;20031;-34
2024/01/28 10:40:30;;;;;;;0.65;0.00;;;22.20;52.00;;;;;;5129409;27;20539;-35
2024/01/28 10:42:57;;;;;;;0.32;0.00;;;22.20;51.90;;;;;;5142384;27;20068;-40
2024/01/28 10:45:23;;;;;;;0.10;0.00;;;22.30;51.80;;;;;;5138594;27;20098;-37
2024/01/28 10:47:54;;;;;;;0.25;0.10;;;22.30;52.30;;;;;;5137992;27;20023;-36
2024/01/28 10:50:21;;;;;;;0.10;0.10;;;22.20;51.70;;;;;;5137985;27;20026;-38
2024/01/28 10:52:48;;;;;;;0.03;0.03;;;22.20;51.80;;;;;;5136983;27;20039;-35
2024/01/28 10:55:15;;;;;;;0.00;0.00;;;22.20;51.90;;;;;;5138930;27;20031;-35
2024/01/28 10:57:41;;;;;;;0.38;0.10;;;22.20;51.90;;;;;;5121056;27;20112;-34
2024/01/28 11:00:10;;;;;;;0.50;0.05;;;22.20;51.70;;;;;;5105018;27;20072;-30
2024/01/28 11:02:37;;;;;;;2.17;0.10;;;22.20;51.60;;;;;;5138575;27;20043;-35
2024/01/28 11:05:03;;;;;;;1.50;0.10;;;22.20;51.50;;;;;;5118044;27;20041;-35
2024/01/28 11:07:30;;;;;;;5.80;0.10;;;22.20;51.60;;;;;;5134147;27;20087;-33
2024/01/28 11:09:59;;;;;;;0.20;0.00;;;22.20;51.60;;;;;;5142001;27;20286;-35
2024/01/28 11:12:27;;;;;;;5.72;0.20;;;22.10;51.60;;;;;;5136894;27;20051;-38
2024/01/28 11:14:53;;;;;;;2.05;0.10;;;22.20;51.50;;;;;;5122288;27;20030;-36
2024/01/28 11:17:19;;;;;;;3.22;0.10;;;22.20;51.50;;;;;;5138901;27;20061;-33
2024/01/28 11:19:45;;;;;;;1.15;0.20;;;22.20;51.40;;;;;;5112821;27;20093;-36
2024/01/28 11:22:15;;;;;;;5.28;0.10;;;22.20;51.40;;;;;;5134050;27;20049;-35
2024/01/28 11:24:54;;;;;;;4.55;0.20;;;22.20;51.50;;;;;;5114172;27;20039;-35
2024/01/28 11:27:20;;;;;;;2.17;0.10;;;22.10;51.50;;;;;;5117601;28;20817;-34
2024/01/28 11:29:47;;;;;;;0.27;0.00;;;22.20;51.50;;;;;;5099530;27;20099;-36
2024/01/28 11:32:16;;;;;;;0.20;0.10;;;22.20;51.30;;;;;;5139803;27;20112;-36
2024/01/28 11:34:46;;;;;;;0.20;0.00;;;22.20;51.20;;;;;;5136971;27;20028;-39
2024/01/28 11:37:14;;;;;;;1.90;0.10;;;22.20;51.20;;;;;;5113530;27;20026;-35
2024/01/28 11:39:46;;;;;;;0.00;0.00;;;22.20;51.30;;;;;;5141282;27;20019;-34
2024/01/28 11:42:13;;;;;;;1.13;0.10;;;22.10;51.20;;;;;;5122662;27;20037;-34
2024/01/28 11:44:43;;;;;;;1.92;0.10;;;22.10;51.30;;;;;;5132875;27;20036;-36
2024/01/28 11:47:17;;;;;;;0.10;0.10;;;22.20;51.30;;;;;;5136517;27;20038;-36
2024/01/28 11:49:43;;;;;;;0.20;0.08;;;22.20;51.10;;;;;;5140179;27;20031;-37
2024/01/28 11:52:11;;;;;;;0.10;0.10;;;22.20;51.00;;;;;;5142624;27;20043;-37
2024/01/28 11:54:37;;;;;;;0.10;0.10;;;22.20;51.00;;;;;;5142390;27;20395;-34
2024/01/28 11:57:05;;;;;;;0.13;0.10;;;22.10;51.00;;;;;;5140611;27;20023;-32
2024/01/28 11:59:33;;;;;;;1.25;0.05;;;22.10;51.10;;;;;;5129002;27;20749;-37
2024/01/28 12:02:01;;;;;;;0.10;0.10;;;22.10;51.10;;;;;;5143984;27;20100;-35
2024/01/28 12:04:27;;;;;;;0.10;0.10;;;22.20;51.00;;;;;;5137210;27;20039;-34
2024/01/28 12:06:53;;;;;;;0.05;0.05;;;22.20;51.00;;;;;;5143040;27;20594;-35
2024/01/28 12:09:22;;;;;;;0.00;0.00;;;22.20;50.80;;;;;;5132309;27;20043;-35
2024/01/28 12:11:48;;;;;;;0.20;0.17;;;22.20;50.90;;;;;;5148192;27;20109;-36
2024/01/28 12:14:15;;;;;;;0.05;0.05;;;22.10;50.90;;;;;;5139209;27;20494;-35
2024/01/28 12:16:41;;;;;;;0.10;0.00;;;22.10;50.90;;;;;;5136800;27;20065;-32
2024/01/28 12:19:10;;;;;;;0.00;0.00;;;22.10;50.90;;;;;;5142091;27;20083;-37
2024/01/28 12:21:38;;;;;;;3.65;0.10;;;22.20;50.80;;;;;;5145000;27;20086;-33
2024/01/28 12:24:04;;;;;;;0.10;0.10;;;22.20;50.80;;;;;;5135743;27;20045;-37
2024/01/28 12:26:34;;;;;;;0.95;0.10;;;22.20;50.80;;;;;;5131353;27;20047;-31
2024/01/28 12:29:00;;;;;;;0.57;0.10;;;22.20;51.00;;;;;;5132236;27;20046;-36
2024/01/28 12:31:26;;;;;;;0.68;0.03;;;22.10;50.90;;;;;;5138183;27;20072;-36
2024/01/28 12:33:53;;;;;;;0.00;0.00;;;22.10;51.00;;;;;;5109391;28;20118;-36
2024/01/28 12:36:23;;;;;;;0.00;0.00;;;22.20;50.80;;;;;;5121186;27;20033;-35
2024/01/28 12:38:49;;;;;;;0.05;0.05;;;22.20;50.70;;;;;;5140547;27;20433;-37
2024/01/28 12:41:15;;;;;;;0.00;0.00;;;22.20;50.70;;;;;;5130265;27;20393;-35
2024/01/28 12:43:43;;;;;;;0.10;0.05;;;22.10;50.60;;;;;;5143065;27;20051;-36
2024/01/28 12:46:09;;;;;;;0.10;0.10;;;22.10;50.70;;;;;;5130988;27;20035;-34